Time;durP1;ratioP1;P1;durP2;ratioP2;P2;SDS_P1;SDS_P2;PMS_P1;PMS_P2;Temp;Humidity;BMP_temperature;BMP_pressure;BME280_temperature;BME280_humidity;BME280_pressure;Samples;Min_cycle;Max_cycle;Signal;HPM_P1;HPM_P2
2021/04/18 00:01:29;;;;;;;8.32;4.30;;;7.90;99.90;;;;;;5094827;28;19912;-66
2021/04/18 00:03:55;;;;;;;6.82;4.47;;;7.70;99.90;;;;;;5094293;28;20059;-66
2021/04/18 00:06:20;;;;;;;7.57;4.80;;;7.50;99.90;;;;;;5094743;28;20105;-66
2021/04/18 00:08:47;;;;;;;9.35;4.90;;;7.40;99.90;;;;;;5094452;28;20028;-66
2021/04/18 00:11:13;;;;;;;6.80;4.50;;;7.40;99.90;;;;;;5094249;28;20035;-66
2021/04/18 00:13:39;;;;;;;6.90;4.50;;;7.50;99.90;;;;;;5094014;28;20032;-67
2021/04/18 00:16:05;;;;;;;7.10;4.10;;;7.50;99.90;;;;;;5094132;28;20150;-66
2021/04/18 00:18:31;;;;;;;9.70;4.63;;;7.50;99.90;;;;;;5092520;28;20016;-67
2021/04/18 00:20:56;;;;;;;11.07;4.13;;;7.40;99.90;;;;;;5093833;28;20393;-67
2021/04/18 00:23:22;;;;;;;7.33;4.00;;;7.40;99.90;;;;;;5092839;28;20381;-67
2021/04/18 00:25:48;;;;;;;7.85;4.55;;;7.40;99.90;;;;;;5094216;28;20034;-67
2021/04/18 00:28:14;;;;;;;6.17;3.97;;;7.40;99.90;;;;;;5094207;28;20039;-67
2021/04/18 00:30:39;;;;;;;7.67;4.43;;;7.40;99.90;;;;;;5093979;28;20031;-66
2021/04/18 00:33:05;;;;;;;8.48;4.10;;;7.40;99.90;;;;;;5094280;28;20031;-67
2021/04/18 00:35:31;;;;;;;7.68;3.67;;;7.70;99.90;;;;;;5094695;28;20067;-66
2021/04/18 00:37:57;;;;;;;8.63;4.28;;;7.80;99.90;;;;;;5094904;28;20516;-66
2021/04/18 00:40:24;;;;;;;9.13;3.83;;;7.70;99.90;;;;;;5093944;28;20024;-66
2021/04/18 00:42:51;;;;;;;7.85;3.88;;;7.60;99.90;;;;;;5092385;28;20020;-67
2021/04/18 00:45:18;;;;;;;8.23;4.18;;;7.60;99.90;;;;;;5093711;28;20028;-66
2021/04/18 00:47:47;;;;;;;9.82;4.30;;;7.50;99.90;;;;;;5093700;28;20400;-66
2021/04/18 00:50:16;;;;;;;8.30;4.38;;;7.40;99.90;;;;;;5093621;28;20384;-66
2021/04/18 00:52:41;;;;;;;9.95;5.65;;;7.30;99.90;;;;;;5093738;28;20468;-65
2021/04/18 00:55:08;;;;;;;9.00;4.50;;;7.20;99.90;;;;;;5093510;28;20071;-65
2021/04/18 00:57:35;;;;;;;7.70;4.03;;;7.20;99.90;;;;;;5093938;28;20364;-66
2021/04/18 01:00:06;;;;;;;10.32;4.72;;;7.20;99.90;;;;;;5093582;28;20528;-67
2021/04/18 01:02:32;;;;;;;9.50;4.47;;;7.10;99.90;;;;;;5093433;28;20028;-66
2021/04/18 01:04:58;;;;;;;7.83;4.63;;;7.10;99.90;;;;;;5093404;28;20519;-66
2021/04/18 01:07:23;;;;;;;11.17;4.83;;;7.10;99.90;;;;;;5093252;28;20032;-66
2021/04/18 01:09:50;;;;;;;11.63;4.87;;;7.20;99.90;;;;;;5093449;28;20262;-66
2021/04/18 01:12:15;;;;;;;12.77;5.50;;;7.20;99.90;;;;;;5093263;28;20526;-67
2021/04/18 01:14:41;;;;;;;7.60;4.80;;;7.20;99.90;;;;;;5093273;28;20031;-67
2021/04/18 01:17:07;;;;;;;7.60;4.57;;;7.20;99.90;;;;;;5093033;28;20052;-67
2021/04/18 01:19:33;;;;;;;6.83;4.40;;;7.20;99.90;;;;;;5093087;28;20380;-67
2021/04/18 01:21:58;;;;;;;8.53;5.00;;;7.20;99.90;;;;;;5093345;28;20055;-67
2021/04/18 01:24:25;;;;;;;9.00;4.93;;;7.20;99.90;;;;;;5092975;28;20262;-67
2021/04/18 01:26:51;;;;;;;7.80;4.82;;;7.20;99.90;;;;;;5093204;28;20095;-67
2021/04/18 01:29:17;;;;;;;9.25;5.35;;;7.20;99.90;;;;;;5092985;28;20130;-67
2021/04/18 01:31:43;;;;;;;8.93;5.45;;;7.20;99.90;;;;;;5092819;28;20534;-66
2021/04/18 01:34:13;;;;;;;8.80;4.77;;;7.20;99.90;;;;;;5092903;28;20028;-67
2021/04/18 01:36:44;;;;;;;7.30;4.72;;;7.10;99.90;;;;;;5092983;28;20032;-67
2021/04/18 01:39:09;;;;;;;6.57;4.47;;;7.00;99.90;;;;;;5091896;28;20085;-67
2021/04/18 01:41:35;;;;;;;8.60;5.10;;;6.90;99.90;;;;;;5093022;28;20307;-67
2021/04/18 01:44:04;;;;;;;9.60;5.60;;;6.90;99.90;;;;;;5092867;28;20020;-67
2021/04/18 01:46:29;;;;;;;9.10;5.60;;;6.90;99.90;;;;;;5092698;28;20469;-67
2021/04/18 01:48:55;;;;;;;9.57;5.00;;;6.80;99.90;;;;;;5093314;28;20020;-67
2021/04/18 01:51:24;;;;;;;8.47;4.80;;;6.80;99.90;;;;;;5093064;28;20470;-66
2021/04/18 01:53:49;;;;;;;8.63;5.03;;;6.80;99.90;;;;;;5093164;28;20032;-65
2021/04/18 01:56:15;;;;;;;8.63;4.80;;;6.80;99.90;;;;;;5092588;28;20326;-67
2021/04/18 01:58:41;;;;;;;8.23;4.77;;;6.70;99.90;;;;;;5091632;28;20020;-66
2021/04/18 02:01:06;;;;;;;9.73;5.03;;;6.70;99.90;;;;;;5092862;28;20020;-67
2021/04/18 02:03:32;;;;;;;9.67;4.87;;;6.70;99.90;;;;;;5093102;28;20430;-67
2021/04/18 02:05:57;;;;;;;10.90;5.53;;;6.70;99.90;;;;;;5092674;28;20031;-66
2021/04/18 02:08:23;;;;;;;8.83;5.20;;;6.70;99.90;;;;;;5095311;28;20048;-67
2021/04/18 02:10:49;;;;;;;7.10;4.80;;;6.70;99.90;;;;;;5093186;28;20028;-67
2021/04/18 02:13:20;;;;;;;7.53;4.63;;;6.80;99.90;;;;;;5092766;28;20032;-66
2021/04/18 02:15:46;;;;;;;8.45;4.97;;;6.80;99.90;;;;;;5092823;28;20028;-66
2021/04/18 02:18:12;;;;;;;8.83;4.80;;;6.80;99.90;;;;;;5092766;28;20161;-66
2021/04/18 02:20:37;;;;;;;9.17;5.23;;;6.90;99.90;;;;;;5092957;28;20031;-66
2021/04/18 02:23:03;;;;;;;11.00;4.80;;;6.90;99.90;;;;;;5090987;28;20080;-67
2021/04/18 02:25:28;;;;;;;11.10;5.27;;;7.00;99.90;;;;;;5091387;28;20044;-60
2021/04/18 02:27:54;;;;;;;8.60;4.70;;;7.00;99.90;;;;;;5092678;28;20100;-60
2021/04/18 02:30:20;;;;;;;9.03;5.30;;;7.00;99.90;;;;;;5097244;28;20028;-62
2021/04/18 02:32:46;;;;;;;7.57;4.80;;;7.00;99.90;;;;;;5093619;28;20166;-57
2021/04/18 02:35:12;;;;;;;8.30;4.90;;;7.00;99.90;;;;;;5093302;28;20035;-59
2021/04/18 02:37:38;;;;;;;;;;;7.00;99.90;;;;;;5093216;28;20032;-60
2021/04/18 02:40:04;;;;;;;8.82;5.47;;;7.00;99.90;;;;;;5092792;28;20006;-61
2021/04/18 02:42:29;;;;;;;9.65;5.03;;;7.00;99.90;;;;;;5093936;28;20438;-58
2021/04/18 02:44:55;;;;;;;8.67;5.30;;;7.00;99.90;;;;;;5096344;28;20043;-60
2021/04/18 02:47:21;;;;;;;8.90;5.43;;;7.00;99.90;;;;;;5096177;28;20028;-60
2021/04/18 02:49:46;;;;;;;11.93;4.83;;;7.00;99.90;;;;;;5096116;28;20028;-59
2021/04/18 02:52:12;;;;;;;11.10;4.93;;;7.00;99.90;;;;;;5096544;28;20032;-60
2021/04/18 02:54:38;;;;;;;11.07;4.70;;;7.00;99.90;;;;;;5096076;28;20028;-62
2021/04/18 02:57:04;;;;;;;8.90;4.77;;;7.00;99.90;;;;;;5094512;28;20381;-61
2021/04/18 02:59:29;;;;;;;11.27;5.30;;;6.90;99.90;;;;;;5097572;28;20366;-59
2021/04/18 03:01:55;;;;;;;10.43;5.30;;;6.90;99.90;;;;;;5096171;28;20024;-59
2021/04/18 03:04:20;;;;;;;10.13;5.50;;;6.90;99.90;;;;;;5096019;28;20496;-59
2021/04/18 03:06:46;;;;;;;8.23;5.20;;;6.80;99.90;;;;;;5095844;28;20415;-60
2021/04/18 03:09:12;;;;;;;9.53;4.97;;;6.70;99.90;;;;;;5096104;28;20050;-61
2021/04/18 03:11:38;;;;;;;9.50;5.13;;;6.60;99.90;;;;;;5095714;28;20035;-61
2021/04/18 03:14:04;;;;;;;11.45;5.40;;;6.60;99.90;;;;;;5095440;28;20351;-61
2021/04/18 03:16:30;;;;;;;10.73;5.63;;;6.60;99.90;;;;;;5097722;28;20028;-61
2021/04/18 03:18:56;;;;;;;8.55;5.80;;;6.60;99.90;;;;;;5096470;28;20027;-61
2021/04/18 03:21:21;;;;;;;7.03;4.57;;;6.50;99.90;;;;;;5095517;28;20095;-62
2021/04/18 03:23:47;;;;;;;7.67;4.50;;;6.50;99.90;;;;;;5095515;28;20074;-61
2021/04/18 03:26:12;;;;;;;7.47;5.03;;;6.60;99.90;;;;;;5095506;28;20077;-61
2021/04/18 03:28:38;;;;;;;12.50;5.43;;;6.60;99.90;;;;;;5095380;28;20024;-62
2021/04/18 03:31:04;;;;;;;7.73;5.33;;;6.60;99.90;;;;;;5096010;28;20489;-60
2021/04/18 03:33:30;;;;;;;9.43;5.05;;;6.60;99.90;;;;;;5095063;28;20100;-59
2021/04/18 03:35:55;;;;;;;9.02;5.80;;;6.60;99.90;;;;;;5095296;28;20495;-61
2021/04/18 03:38:21;;;;;;;8.50;5.73;;;6.60;99.90;;;;;;5095002;28;20027;-62
2021/04/18 03:40:47;;;;;;;9.63;5.23;;;6.50;99.90;;;;;;5095468;28;20385;-61
2021/04/18 03:43:13;;;;;;;10.18;5.53;;;6.50;99.90;;;;;;5094896;28;20024;-61
2021/04/18 03:45:38;;;;;;;9.70;5.27;;;6.50;99.90;;;;;;5094960;28;20032;-59
2021/04/18 03:48:05;;;;;;;9.33;5.97;;;6.40;99.90;;;;;;5094751;28;20035;-59
2021/04/18 03:50:31;;;;;;;9.65;5.90;;;6.50;99.90;;;;;;5094990;28;20044;-58
2021/04/18 03:52:57;;;;;;;10.52;6.15;;;6.40;99.90;;;;;;5094776;28;20043;-60
2021/04/18 03:55:24;;;;;;;9.13;5.72;;;6.40;99.90;;;;;;5094172;28;20032;-60
2021/04/18 03:57:51;;;;;;;13.18;6.43;;;6.40;99.90;;;;;;5094575;28;20098;-58
2021/04/18 04:00:17;;;;;;;10.68;5.70;;;6.30;99.90;;;;;;5094600;28;20055;-61
2021/04/18 04:02:43;;;;;;;;;;;6.30;99.90;;;;;;5095005;28;20479;-60
2021/04/18 04:05:09;;;;;;;10.32;6.05;;;6.30;99.90;;;;;;5093259;28;19904;-61
2021/04/18 04:07:35;;;;;;;10.35;6.10;;;6.20;99.90;;;;;;5094558;28;20384;-61
2021/04/18 04:10:01;;;;;;;9.57;5.53;;;6.20;99.90;;;;;;5094692;28;20032;-61
2021/04/18 04:12:27;;;;;;;9.98;6.40;;;6.20;99.90;;;;;;5094789;28;20064;-62
2021/04/18 04:14:53;;;;;;;;;;;6.20;99.90;;;;;;5094658;28;20520;-61
2021/04/18 04:17:19;;;;;;;10.32;6.40;;;6.20;99.90;;;;;;5098582;28;19904;-61
2021/04/18 04:19:44;;;;;;;11.30;7.25;;;6.30;99.90;;;;;;5096665;28;20028;-60
2021/04/18 04:22:10;;;;;;;10.57;6.37;;;6.20;99.90;;;;;;5094388;28;20077;-59
2021/04/18 04:24:36;;;;;;;11.50;7.03;;;6.30;99.90;;;;;;5092889;28;20024;-63
2021/04/18 04:27:01;;;;;;;11.10;6.80;;;6.30;99.90;;;;;;5094235;28;20084;-61
2021/04/18 04:29:27;;;;;;;11.33;7.37;;;6.30;99.90;;;;;;5094116;28;20148;-60
2021/04/18 04:31:52;;;;;;;9.97;6.60;;;6.30;99.90;;;;;;5094125;28;20059;-62
2021/04/18 04:34:18;;;;;;;11.80;7.00;;;6.30;99.90;;;;;;5093952;28;20027;-60
2021/04/18 04:36:44;;;;;;;12.27;6.77;;;6.30;99.90;;;;;;5093955;28;20161;-59
2021/04/18 04:39:10;;;;;;;9.70;6.80;;;6.40;99.90;;;;;;5092809;28;20021;-61
2021/04/18 04:41:36;;;;;;;8.82;6.28;;;6.40;99.90;;;;;;5094146;28;20044;-61
2021/04/18 04:44:01;;;;;;;11.73;7.37;;;6.40;99.90;;;;;;5093778;28;20105;-62
2021/04/18 04:46:27;;;;;;;12.00;6.93;;;6.40;99.90;;;;;;5094009;28;20548;-62
2021/04/18 04:48:52;;;;;;;11.97;6.80;;;6.40;99.90;;;;;;5094000;28;20101;-59
2021/04/18 04:51:18;;;;;;;13.47;8.07;;;6.30;99.90;;;;;;5094127;28;20107;-66
2021/04/18 04:53:44;;;;;;;19.80;7.28;;;6.30;99.90;;;;;;5093603;28;20473;-65
2021/04/18 04:56:10;;;;;;;12.70;7.37;;;6.30;99.90;;;;;;5093318;28;20036;-65
2021/04/18 04:58:35;;;;;;;11.40;6.67;;;6.30;99.90;;;;;;5092172;28;20484;-65
2021/04/18 05:01:01;;;;;;;11.37;6.60;;;6.40;99.90;;;;;;5093387;28;20034;-65
2021/04/18 05:03:27;;;;;;;12.53;7.37;;;6.40;99.90;;;;;;5093497;28;20350;-65
2021/04/18 05:05:54;;;;;;;;;;;6.40;99.90;;;;;;5093758;28;20383;-65
2021/04/18 05:08:19;;;;;;;10.13;6.60;;;6.40;99.90;;;;;;5092068;28;19903;-66
2021/04/18 05:10:45;;;;;;;11.60;7.28;;;6.40;99.90;;;;;;5093328;28;20016;-65
2021/04/18 05:13:12;;;;;;;14.85;7.55;;;6.40;99.90;;;;;;5093275;28;20028;-65
2021/04/18 05:15:38;;;;;;;12.35;6.85;;;6.40;99.90;;;;;;5093135;28;20111;-65
2021/04/18 05:18:04;;;;;;;9.18;6.80;;;6.40;99.90;;;;;;5092990;28;20116;-65
2021/04/18 05:20:30;;;;;;;11.43;7.35;;;6.40;99.90;;;;;;5093158;28;20044;-65
2021/04/18 05:22:56;;;;;;;11.43;7.05;;;6.40;99.90;;;;;;5091931;28;20093;-65
2021/04/18 05:25:21;;;;;;;12.67;7.57;;;6.40;99.90;;;;;;5091681;28;20489;-66
2021/04/18 05:27:47;;;;;;;12.57;7.23;;;6.50;99.90;;;;;;5093033;28;20281;-65
2021/04/18 05:30:13;;;;;;;11.27;6.97;;;6.50;99.90;;;;;;5093055;28;20103;-66
2021/04/18 05:32:40;;;;;;;14.27;7.30;;;6.60;99.90;;;;;;5093472;28;20028;-65
2021/04/18 05:35:06;;;;;;;10.13;7.25;;;6.60;99.90;;;;;;5093006;28;20111;-65
2021/04/18 05:37:32;;;;;;;;;;;6.70;99.90;;;;;;5093291;28;20136;-65
2021/04/18 05:39:57;;;;;;;12.55;7.18;;;6.80;99.90;;;;;;5093135;28;20373;-65
2021/04/18 05:42:23;;;;;;;11.80;7.20;;;6.80;99.90;;;;;;5092903;28;20027;-66
2021/04/18 05:44:49;;;;;;;8.97;6.03;;;6.90;99.90;;;;;;5092996;28;20467;-66
2021/04/18 05:47:14;;;;;;;13.23;7.00;;;6.90;99.90;;;;;;5091486;28;20028;-65
2021/04/18 05:49:40;;;;;;;11.03;7.07;;;7.00;99.90;;;;;;5094167;28;20032;-65
2021/04/18 05:52:06;;;;;;;10.73;7.23;;;7.00;99.90;;;;;;5093400;28;20202;-64
2021/04/18 05:54:32;;;;;;;11.10;6.70;;;7.10;99.90;;;;;;5093168;28;20480;-65
2021/04/18 05:56:58;;;;;;;12.93;7.80;;;7.10;99.90;;;;;;5094941;28;20024;-65
2021/04/18 05:59:23;;;;;;;12.07;7.67;;;7.20;99.90;;;;;;5096955;28;20477;-65
2021/04/18 06:01:49;;;;;;;13.17;6.77;;;7.20;99.90;;;;;;5093104;28;20481;-65
2021/04/18 06:04:15;;;;;;;10.55;7.13;;;7.30;99.90;;;;;;5093036;28;20024;-65
2021/04/18 06:06:40;;;;;;;13.40;7.30;;;7.40;99.90;;;;;;5092909;28;20051;-64
2021/04/18 06:09:06;;;;;;;10.33;7.00;;;7.40;99.90;;;;;;5093626;28;20032;-65
2021/04/18 06:11:32;;;;;;;13.97;6.83;;;7.40;99.90;;;;;;5093343;28;20029;-65
2021/04/18 06:13:57;;;;;;;10.07;6.87;;;7.50;99.90;;;;;;5092636;28;20032;-65
2021/04/18 06:16:23;;;;;;;11.93;7.30;;;7.50;99.90;;;;;;5093146;28;20322;-65
2021/04/18 06:18:49;;;;;;;10.33;6.57;;;7.50;99.90;;;;;;5096147;28;20032;-65
2021/04/18 06:21:14;;;;;;;10.33;6.23;;;7.60;99.90;;;;;;5097314;28;20052;-65
2021/04/18 06:23:40;;;;;;;11.43;6.63;;;7.70;99.90;;;;;;5096907;28;20016;-64
2021/04/18 06:26:07;;;;;;;11.25;5.70;;;7.70;99.90;;;;;;5096599;28;20031;-66
2021/04/18 06:28:33;;;;;;;8.05;5.75;;;7.70;99.90;;;;;;5096438;28;20380;-65
2021/04/18 06:30:58;;;;;;;9.73;6.07;;;7.70;99.90;;;;;;5096628;28;20020;-65
2021/04/18 06:33:24;;;;;;;10.03;6.07;;;7.80;99.90;;;;;;5096669;28;20035;-65
2021/04/18 06:35:49;;;;;;;12.13;7.00;;;7.90;99.90;;;;;;5096567;28;20036;-65
2021/04/18 06:38:16;;;;;;;10.67;5.73;;;8.10;99.90;;;;;;5094936;28;20107;-65
2021/04/18 06:40:42;;;;;;;11.48;6.07;;;8.20;99.90;;;;;;5095419;28;20054;-66
2021/04/18 06:43:09;;;;;;;9.90;6.30;;;8.20;99.90;;;;;;5094919;28;20496;-65
2021/04/18 06:45:35;;;;;;;8.80;6.47;;;8.30;99.90;;;;;;5100335;28;20024;-65
2021/04/18 06:48:01;;;;;;;10.00;5.97;;;8.30;99.90;;;;;;5093715;28;20024;-65
2021/04/18 06:50:27;;;;;;;9.48;5.65;;;8.30;99.90;;;;;;5095196;28;20048;-65
2021/04/18 06:52:53;;;;;;;10.80;5.80;;;8.40;99.90;;;;;;5093617;28;20063;-65
2021/04/18 06:55:18;;;;;;;8.77;5.68;;;8.50;99.90;;;;;;5094999;28;20021;-65
2021/04/18 06:57:44;;;;;;;7.03;5.23;;;8.60;99.90;;;;;;5094755;28;20076;-65
2021/04/18 07:00:12;;;;;;;12.67;5.97;;;8.80;99.90;;;;;;5094674;28;20084;-66
2021/04/18 07:02:38;;;;;;;8.88;6.20;;;9.00;99.90;;;;;;5095063;28;20320;-66
2021/04/18 07:05:12;;;;;;;7.72;4.75;;;9.10;99.90;;;;;;5094708;28;20032;-66
2021/04/18 07:07:40;;;;;;;9.13;5.22;;;9.10;99.90;;;;;;5093227;28;20039;-67
2021/04/18 07:10:13;;;;;;;7.88;5.70;;;9.10;99.90;;;;;;5093150;28;20020;-66
2021/04/18 07:12:39;;;;;;;10.93;5.38;;;9.10;99.90;;;;;;5093083;28;20031;-66
2021/04/18 07:15:05;;;;;;;7.18;5.03;;;9.20;99.90;;;;;;5094622;28;20420;-66
2021/04/18 07:17:31;;;;;;;6.75;5.13;;;9.20;99.90;;;;;;5092943;28;20032;-66
2021/04/18 07:20:12;;;;;;;8.03;4.97;;;9.40;99.90;;;;;;5094312;28;20028;-66
2021/04/18 07:22:38;;;;;;;8.95;5.57;;;9.60;99.90;;;;;;5094129;28;20093;-67
2021/04/18 07:25:04;;;;;;;6.63;4.50;;;9.50;99.90;;;;;;5094347;28;20020;-67
2021/04/18 07:28:02;;;;;;;;;;;9.50;99.90;;;;;;5094574;28;20030;-66
2021/04/18 07:30:45;;;;;;;9.38;5.05;;;9.50;99.90;;;;;;5071103;28;19953;-66
2021/04/18 07:33:11;;;;;;;10.38;5.53;;;9.20;99.90;;;;;;5094028;28;20020;-66
2021/04/18 07:35:39;;;;;;;14.80;8.17;;;9.30;99.90;;;;;;5094213;28;20064;-64
2021/04/18 07:38:27;;;;;;;8.07;5.47;;;9.50;99.90;;;;;;5074861;28;603578;-65
2021/04/18 07:40:54;;;;;;;8.15;4.68;;;9.90;99.90;;;;;;5094219;28;20020;-65
2021/04/18 07:43:20;;;;;;;8.65;5.15;;;10.10;99.90;;;;;;5095096;28;20070;-65
2021/04/18 07:45:47;;;;;;;7.68;5.25;;;10.10;99.90;;;;;;5095107;28;20199;-65
2021/04/18 07:48:17;;;;;;;6.82;4.80;;;10.10;99.90;;;;;;5093661;28;20481;-65
2021/04/18 07:50:45;;;;;;;8.02;5.00;;;10.20;99.90;;;;;;5095044;28;20161;-64
2021/04/18 07:53:14;;;;;;;11.20;5.63;;;10.50;99.90;;;;;;5093511;28;20027;-64
2021/04/18 07:55:40;;;;;;;8.20;5.32;;;10.80;99.10;;;;;;5094814;28;20093;-65
2021/04/18 07:58:05;;;;;;;9.33;5.33;;;10.90;98.60;;;;;;5094578;28;20028;-65
2021/04/18 08:00:32;;;;;;;10.07;5.40;;;10.90;98.40;;;;;;5094731;28;20700;-65
2021/04/18 08:02:58;;;;;;;6.60;5.38;;;10.90;98.30;;;;;;5094793;28;20111;-63
2021/04/18 08:05:25;;;;;;;6.40;4.70;;;11.10;98.10;;;;;;5094443;28;20028;-65
2021/04/18 08:07:59;;;;;;;9.80;5.70;;;11.10;98.10;;;;;;5094284;28;20469;-65
2021/04/18 08:10:25;;;;;;;8.95;5.22;;;11.10;97.80;;;;;;5094518;28;20035;-64
2021/04/18 08:13:00;;;;;;;;;;;11.10;97.50;;;;;;5094739;28;20020;-65
2021/04/18 08:15:25;;;;;;;11.10;5.20;;;11.20;97.50;;;;;;5094391;28;19908;-64
2021/04/18 08:18:12;;;;;;;9.33;4.93;;;11.00;97.20;;;;;;5092980;28;20020;-65
2021/04/18 08:20:44;;;;;;;8.02;4.95;;;11.10;96.90;;;;;;5094244;28;20016;-64
2021/04/18 08:23:14;;;;;;;9.48;4.97;;;11.20;96.70;;;;;;5094229;28;20514;-65
2021/04/18 08:26:10;;;;;;;7.68;4.70;;;11.30;96.30;;;;;;5094149;28;20028;-66
2021/04/18 08:28:51;;;;;;;15.02;5.88;;;11.60;95.10;;;;;;5094245;28;20020;-66
2021/04/18 08:31:17;;;;;;;9.27;4.97;;;11.70;94.60;;;;;;5094080;28;20038;-68
2021/04/18 08:33:46;;;;;;;12.70;5.43;;;11.80;94.50;;;;;;5093809;28;20389;-66
2021/04/18 08:36:18;;;;;;;6.85;4.45;;;11.80;94.80;;;;;;5093670;28;20498;-65
2021/04/18 08:38:46;;;;;;;7.18;4.43;;;11.80;94.70;;;;;;5094027;28;20058;-65
2021/04/18 08:41:14;;;;;;;7.72;4.93;;;11.80;94.50;;;;;;5093419;28;20410;-65
2021/04/18 08:43:45;;;;;;;7.30;4.35;;;11.70;94.30;;;;;;5093814;28;20016;-65
2021/04/18 08:46:12;;;;;;;9.93;4.72;;;11.30;94.40;;;;;;5093423;28;20019;-65
2021/04/18 08:48:38;;;;;;;8.50;4.80;;;11.20;95.30;;;;;;5093725;28;20533;-64
2021/04/18 08:51:07;;;;;;;11.20;5.25;;;11.20;95.50;;;;;;5093452;28;20052;-62
2021/04/18 08:54:00;;;;;;;6.57;4.65;;;11.30;95.40;;;;;;5093485;28;20031;-64
2021/04/18 08:56:48;;;;;;;8.55;4.80;;;11.20;95.40;;;;;;5093490;28;20099;-63
2021/04/18 08:59:15;;;;;;;8.10;4.60;;;11.00;95.70;;;;;;5093362;28;20480;-63
2021/04/18 09:02:06;;;;;;;8.55;5.15;;;10.90;96.10;;;;;;5093493;28;20384;-61
2021/04/18 09:04:45;;;;;;;7.15;4.60;;;10.80;96.50;;;;;;5093667;28;20024;-63
2021/04/18 09:07:14;;;;;;;9.93;5.28;;;10.80;96.80;;;;;;5093458;28;20032;-62
2021/04/18 09:09:40;;;;;;;7.50;4.65;;;11.00;96.80;;;;;;5093391;28;20473;-60
2021/04/18 09:12:07;;;;;;;10.07;4.40;;;11.00;96.50;;;;;;5093645;28;20039;-62
2021/04/18 09:14:34;;;;;;;;;;;11.00;96.60;;;;;;5093767;28;20016;-65
2021/04/18 09:17:14;;;;;;;15.27;6.72;;;10.90;96.70;;;;;;5093332;28;19904;-61
2021/04/18 09:19:54;;;;;;;8.48;4.88;;;11.00;96.70;;;;;;5093329;28;20026;-60
2021/04/18 09:22:31;;;;;;;8.25;4.95;;;11.10;96.70;;;;;;5093301;28;20028;-64
2021/04/18 09:25:00;;;;;;;8.25;4.78;;;11.10;96.60;;;;;;5092069;28;20407;-62
2021/04/18 09:27:35;;;;;;;8.52;5.25;;;11.10;96.30;;;;;;5095850;28;20460;-60
2021/04/18 09:30:09;;;;;;;7.53;4.40;;;11.10;96.60;;;;;;5093457;28;20023;-62
2021/04/18 09:32:36;;;;;;;8.65;5.22;;;11.10;96.50;;;;;;5093057;28;20508;-57
2021/04/18 09:35:03;;;;;;;10.88;5.53;;;11.10;96.70;;;;;;5092963;28;20399;-55
2021/04/18 09:37:31;;;;;;;7.55;4.70;;;10.90;97.60;;;;;;5092879;28;20031;-59
2021/04/18 09:40:08;;;;;;;9.00;4.82;;;10.90;97.70;;;;;;5093426;28;20553;-60
2021/04/18 09:42:35;;;;;;;;;;;10.90;97.60;;;;;;5093313;28;20016;-60
2021/04/18 09:45:13;;;;;;;6.67;4.90;;;11.00;97.60;;;;;;5092760;28;19904;-61
2021/04/18 09:47:43;;;;;;;8.40;4.43;;;11.20;97.10;;;;;;5092672;28;20370;-61
2021/04/18 09:50:24;;;;;;;10.80;5.47;;;11.30;96.30;;;;;;5093210;28;20473;-59
2021/04/18 09:52:51;;;;;;;8.88;5.20;;;11.40;96.10;;;;;;5094496;28;20078;-59
2021/04/18 09:55:24;;;;;;;6.78;4.32;;;11.50;95.80;;;;;;5096883;28;20028;-61
2021/04/18 09:57:58;;;;;;;10.90;5.25;;;11.60;95.60;;;;;;5097268;28;20468;-59
2021/04/18 10:00:29;;;;;;;7.50;5.05;;;11.70;95.40;;;;;;5096794;28;20036;-60
2021/04/18 10:03:32;;;;;;;8.93;5.30;;;11.70;94.90;;;;;;5097199;28;20024;-62
2021/04/18 10:05:59;;;;;;;10.25;5.40;;;11.60;94.80;;;;;;5096566;28;20110;-60
2021/04/18 10:08:32;;;;;;;9.15;6.22;;;11.30;95.20;;;;;;5095194;28;20024;-58
2021/04/18 10:11:07;;;;;;;10.90;5.50;;;11.30;95.40;;;;;;5095311;28;20024;-58
2021/04/18 10:13:49;;;;;;;9.13;5.32;;;11.40;95.40;;;;;;5096856;28;20545;-67
2021/04/18 10:16:16;;;;;;;11.68;5.40;;;11.40;95.50;;;;;;5096676;28;20024;-62
2021/04/18 10:19:02;;;;;;;9.38;5.25;;;11.60;95.60;;;;;;5098096;28;20480;-63
2021/04/18 10:21:28;;;;;;;9.43;5.93;;;11.80;95.10;;;;;;5096466;28;20035;-63
2021/04/18 10:23:54;;;;;;;9.43;5.40;;;11.90;94.80;;;;;;5096476;28;20020;-58
2021/04/18 10:26:21;;;;;;;13.20;5.97;;;11.90;94.70;;;;;;5096390;28;20528;-61
2021/04/18 10:28:51;;;;;;;11.23;6.10;;;12.00;94.50;;;;;;5096509;28;20126;-59
2021/04/18 10:31:19;;;;;;;10.73;5.93;;;11.90;94.60;;;;;;5097134;28;20473;-63
2021/04/18 10:33:45;;;;;;;11.18;5.65;;;11.80;94.50;;;;;;5096628;28;20488;-64
2021/04/18 10:36:12;;;;;;;12.75;6.20;;;11.70;94.70;;;;;;5096440;28;20047;-62
2021/04/18 10:38:38;;;;;;;12.07;6.18;;;11.60;95.20;;;;;;5096431;28;20032;-63
2021/04/18 10:41:04;;;;;;;10.10;6.45;;;11.50;95.50;;;;;;5096813;28;20496;-63
2021/04/18 10:43:30;;;;;;;;;;;11.50;95.40;;;;;;5097102;28;20556;-63
2021/04/18 10:45:56;;;;;;;11.60;6.82;;;11.40;95.50;;;;;;5096698;28;19958;-63
2021/04/18 10:48:22;;;;;;;10.75;7.00;;;11.40;95.50;;;;;;5096163;28;20043;-64
2021/04/18 10:50:47;;;;;;;10.27;6.43;;;11.30;95.70;;;;;;5096802;28;20071;-62
2021/04/18 10:53:13;;;;;;;11.52;6.63;;;11.10;95.80;;;;;;5096846;28;20024;-62
2021/04/18 10:55:42;;;;;;;14.00;6.50;;;11.00;96.30;;;;;;5096903;28;20118;-61
2021/04/18 10:58:08;;;;;;;11.48;5.90;;;11.00;95.90;;;;;;5096999;28;20246;-62
2021/04/18 11:00:35;;;;;;;9.88;6.10;;;11.00;95.50;;;;;;5097398;28;20020;-63
2021/04/18 11:03:00;;;;;;;11.90;6.65;;;11.00;95.80;;;;;;5097181;28;20028;-62
2021/04/18 11:05:26;;;;;;;11.83;7.03;;;11.10;95.90;;;;;;5098148;28;20020;-62
2021/04/18 11:07:52;;;;;;;11.25;6.18;;;11.00;96.00;;;;;;5097312;28;20032;-60
2021/04/18 11:10:18;;;;;;;15.17;6.83;;;11.00;95.70;;;;;;5096934;28;20035;-63
2021/04/18 11:12:43;;;;;;;10.02;6.35;;;11.00;95.80;;;;;;5096372;28;20402;-63
2021/04/18 11:15:10;;;;;;;15.37;6.73;;;11.10;95.90;;;;;;5095473;28;20481;-61
2021/04/18 11:17:37;;;;;;;11.38;6.40;;;11.10;96.10;;;;;;5095562;28;20427;-63
2021/04/18 11:20:05;;;;;;;12.35;6.85;;;11.10;96.20;;;;;;5095715;28;20016;-64
2021/04/18 11:22:31;;;;;;;12.32;6.40;;;11.10;96.10;;;;;;5095496;28;20358;-60
2021/04/18 11:24:59;;;;;;;13.17;6.93;;;10.90;96.40;;;;;;5095372;28;20063;-62
2021/04/18 11:27:26;;;;;;;11.23;6.63;;;10.90;97.00;;;;;;5095708;28;20020;-61
2021/04/18 11:29:53;;;;;;;12.57;6.70;;;10.80;96.50;;;;;;5094236;28;20409;-61
2021/04/18 11:32:19;;;;;;;;;;;10.90;97.20;;;;;;5096067;28;20499;-61
2021/04/18 11:34:44;;;;;;;18.70;8.32;;;10.90;97.10;;;;;;5095268;28;19955;-62
2021/04/18 11:37:10;;;;;;;15.30;8.27;;;10.70;97.80;;;;;;5095139;28;20110;-62
2021/04/18 11:39:36;;;;;;;18.43;8.70;;;10.60;98.40;;;;;;5095319;28;20020;-60
2021/04/18 11:42:02;;;;;;;;;;;10.50;99.30;;;;;;5094458;28;20262;-62
2021/04/18 11:44:28;;;;;;;14.07;8.48;;;10.70;99.60;;;;;;5095367;28;19970;-62
2021/04/18 11:46:54;;;;;;;13.67;8.43;;;10.80;98.80;;;;;;5095017;28;20112;-63
2021/04/18 11:49:19;;;;;;;17.23;8.43;;;10.90;99.10;;;;;;5095627;28;20024;-62
2021/04/18 11:51:45;;;;;;;16.05;8.05;;;11.00;98.50;;;;;;5095343;28;20438;-63
2021/04/18 11:54:11;;;;;;;14.00;7.70;;;11.20;97.70;;;;;;5094901;28;20103;-62
2021/04/18 11:56:37;;;;;;;13.77;8.30;;;11.20;97.90;;;;;;5093570;28;20050;-62
2021/04/18 11:59:05;;;;;;;10.95;6.68;;;11.20;97.30;;;;;;5094781;28;20484;-63
2021/04/18 12:01:32;;;;;;;12.07;7.65;;;11.10;96.50;;;;;;5095212;28;20054;-63
2021/04/18 12:03:58;;;;;;;10.48;6.13;;;11.20;96.70;;;;;;5095296;28;20068;-62
2021/04/18 12:06:23;;;;;;;9.87;6.70;;;11.40;96.40;;;;;;5095039;28;20025;-62
2021/04/18 12:08:49;;;;;;;12.00;7.57;;;11.50;97.20;;;;;;5095061;28;20024;-60
2021/04/18 12:11:14;;;;;;;13.37;6.97;;;11.40;97.50;;;;;;5094836;28;20046;-62
2021/04/18 12:13:40;;;;;;;14.27;7.10;;;11.50;97.40;;;;;;5094490;28;20028;-64
2021/04/18 12:16:06;;;;;;;10.53;6.73;;;11.60;97.00;;;;;;5093494;28;20024;-62
2021/04/18 12:18:32;;;;;;;12.13;7.80;;;11.70;96.70;;;;;;5094510;28;20362;-62
2021/04/18 12:20:57;;;;;;;11.27;6.67;;;11.80;96.50;;;;;;5094277;28;20024;-64
2021/04/18 12:23:23;;;;;;;10.97;7.60;;;12.10;95.90;;;;;;5094379;28;20266;-64
2021/04/18 12:25:48;;;;;;;17.17;8.70;;;12.10;95.10;;;;;;5094333;28;20455;-63
2021/04/18 12:28:14;;;;;;;17.20;8.97;;;12.10;95.10;;;;;;5093976;28;20024;-62
2021/04/18 12:30:40;;;;;;;18.23;8.93;;;12.20;95.20;;;;;;5094109;28;20032;-63
2021/04/18 12:33:06;;;;;;;13.45;8.35;;;12.40;94.70;;;;;;5094254;28;20119;-61
2021/04/18 12:35:32;;;;;;;15.48;9.02;;;12.90;94.50;;;;;;5093956;28;20111;-63
2021/04/18 12:37:58;;;;;;;17.00;9.35;;;13.30;93.60;;;;;;5093856;28;20032;-62
2021/04/18 12:40:23;;;;;;;15.50;8.77;;;13.50;93.10;;;;;;5094191;28;20024;-66
2021/04/18 12:42:49;;;;;;;13.48;9.35;;;13.80;92.90;;;;;;5094323;28;20115;-64
2021/04/18 12:45:15;;;;;;;16.77;10.03;;;13.80;92.00;;;;;;5094238;28;20059;-66
2021/04/18 12:47:41;;;;;;;18.90;10.40;;;13.80;91.90;;;;;;5093913;28;20043;-63
2021/04/18 12:50:07;;;;;;;14.77;9.23;;;13.70;91.70;;;;;;5094594;28;20492;-63
2021/04/18 12:52:33;;;;;;;16.58;9.50;;;13.40;91.80;;;;;;5093652;28;20512;-65